Time;durP1;ratioP1;P1;durP2;ratioP2;P2;SDS_P1;SDS_P2;PMS_P1;PMS_P2;Temp;Humidity;BMP_temperature;BMP_pressure;BME280_temperature;BME280_humidity;BME280_pressure;Samples;Min_cycle;Max_cycle;Signal;HPM_P1;HPM_P2
2021/03/13 00:00:06;;;;;;;15.60;1.15;;;;;;;;;;5035475;28;20144;-55
2021/03/13 00:02:32;;;;;;;9.60;1.02;;;;;;;;;;5036592;28;20053;-52
2021/03/13 00:04:58;;;;;;;6.22;1.08;;;;;;;;;;5017997;28;20325;-54
2021/03/13 00:07:23;;;;;;;9.00;0.95;;;;;;;;;;5036296;28;20081;-56
2021/03/13 00:09:50;;;;;;;18.23;1.13;;;;;;;;;;5038843;28;20116;-57
2021/03/13 00:12:17;;;;;;;22.20;1.42;;;;;;;;;;5037308;28;20033;-56
2021/03/13 00:14:43;;;;;;;27.52;1.92;;;;;;;;;;5034213;28;20489;-56
2021/03/13 00:17:09;;;;;;;16.83;1.65;;;;;;;;;;5033399;28;20159;-56
2021/03/13 00:19:36;;;;;;;6.53;1.10;;;;;;;;;;5033680;28;21291;-56
2021/03/13 00:22:01;;;;;;;5.60;1.10;;;;;;;;;;5036946;28;20045;-56
2021/03/13 00:24:27;;;;;;;5.47;1.10;;;;;;;;;;5035543;28;20056;-55
2021/03/13 00:26:53;;;;;;;7.07;1.17;;;;;;;;;;5034755;28;20052;-56
2021/03/13 00:29:19;;;;;;;6.10;0.98;;;;;;;;;;5036143;28;20037;-57
2021/03/13 00:31:45;;;;;;;7.30;1.33;;;;;;;;;;5035982;28;20048;-54
2021/03/13 00:34:11;;;;;;;6.00;1.08;;;;;;;;;;5035734;28;20056;-55
2021/03/13 00:36:39;;;;;;;7.30;1.30;;;;;;;;;;5035549;28;20060;-57
2021/03/13 00:39:06;;;;;;;10.45;1.20;;;;;;;;;;5035295;28;20231;-56
2021/03/13 00:41:32;;;;;;;5.13;1.10;;;;;;;;;;5036247;28;20040;-53
2021/03/13 00:43:58;;;;;;;8.40;1.25;;;;;;;;;;5034736;28;20044;-54
2021/03/13 00:46:24;;;;;;;7.45;1.13;;;;;;;;;;5033861;28;20073;-52
2021/03/13 00:48:49;;;;;;;8.88;1.13;;;;;;;;;;5036695;28;20103;-56
2021/03/13 00:51:15;;;;;;;5.47;1.42;;;;;;;;;;5027182;28;20287;-54
2021/03/13 00:53:41;;;;;;;5.60;0.93;;;;;;;;;;5017580;28;20053;-55
2021/03/13 00:56:07;;;;;;;6.72;0.85;;;;;;;;;;5019180;28;20129;-54
2021/03/13 00:58:33;;;;;;;7.82;1.10;;;;;;;;;;5018768;28;20501;-55
2021/03/13 01:00:59;;;;;;;9.00;1.65;;;;;;;;;;5016209;28;20038;-58
2021/03/13 01:03:25;;;;;;;6.97;2.05;;;;;;;;;;5018889;28;20152;-54
2021/03/13 01:05:57;;;;;;;7.68;1.48;;;;;;;;;;5017724;28;20478;-55
2021/03/13 01:08:26;;;;;;;4.82;1.67;;;;;;;;;;5013593;28;20045;-52
2021/03/13 01:10:52;;;;;;;6.03;1.00;;;;;;;;;;5018412;28;20037;-52
2021/03/13 01:13:20;;;;;;;3.65;1.00;;;;;;;;;;5016733;28;20049;-56
2021/03/13 01:15:46;;;;;;;13.15;1.17;;;;;;;;;;5015967;28;20029;-56
2021/03/13 01:18:12;;;;;;;9.10;1.73;;;;;;;;;;5001445;28;20041;-56
2021/03/13 01:20:38;;;;;;;11.98;1.60;;;;;;;;;;5017445;28;20041;-55
2021/03/13 01:23:04;;;;;;;5.30;1.30;;;;;;;;;;5019476;28;20057;-55
2021/03/13 01:25:30;;;;;;;5.85;1.20;;;;;;;;;;5015505;28;20033;-55
2021/03/13 01:27:56;;;;;;;8.35;1.20;;;;;;;;;;5008744;28;20074;-54
2021/03/13 01:30:22;;;;;;;5.47;0.95;;;;;;;;;;5017954;28;20041;-57
2021/03/13 01:32:49;;;;;;;5.22;1.05;;;;;;;;;;5015597;28;20087;-56
2021/03/13 01:35:15;;;;;;;8.82;1.00;;;;;;;;;;5013735;28;20033;-54
2021/03/13 01:37:41;;;;;;;4.07;1.05;;;;;;;;;;5013982;28;20038;-52
2021/03/13 01:40:10;;;;;;;7.68;1.10;;;;;;;;;;5011873;28;20628;-55
2021/03/13 01:42:36;;;;;;;6.85;1.10;;;;;;;;;;5008073;28;20605;-57
2021/03/13 01:45:02;;;;;;;6.70;1.40;;;;;;;;;;5013237;28;20037;-56
2021/03/13 01:47:29;;;;;;;9.43;1.17;;;;;;;;;;5015035;28;20065;-52
2021/03/13 01:49:56;;;;;;;9.48;1.10;;;;;;;;;;5014993;28;20112;-55
2021/03/13 01:52:22;;;;;;;6.28;1.10;;;;;;;;;;5009505;28;20091;-58
2021/03/13 01:54:48;;;;;;;8.32;1.23;;;;;;;;;;5033553;28;20405;-55
2021/03/13 01:57:17;;;;;;;7.75;1.20;;;;;;;;;;5032252;28;20049;-57
2021/03/13 01:59:44;;;;;;;5.50;1.00;;;;;;;;;;5033772;28;20049;-54
2021/03/13 02:02:10;;;;;;;6.50;1.10;;;;;;;;;;5033148;28;20132;-55
2021/03/13 02:04:37;;;;;;;7.50;1.17;;;;;;;;;;5013714;28;20089;-57
2021/03/13 02:07:09;;;;;;;6.03;0.98;;;;;;;;;;5011618;28;20067;-56
2021/03/13 02:09:38;;;;;;;4.72;1.30;;;;;;;;;;5031695;28;20659;-57
2021/03/13 02:12:09;;;;;;;9.55;1.27;;;;;;;;;;5030128;28;20040;-56
2021/03/13 02:14:35;;;;;;;8.23;1.27;;;;;;;;;;5016568;28;20092;-56
2021/03/13 02:17:01;;;;;;;7.32;1.30;;;;;;;;;;5030368;28;20763;-55
2021/03/13 02:19:46;;;;;;;10.77;1.50;;;;;;;;;;5030209;28;20041;-56
2021/03/13 02:22:13;;;;;;;12.80;1.17;;;;;;;;;;5028458;28;20064;-56
2021/03/13 02:24:58;;;;;;;8.18;1.10;;;;;;;;;;5010730;28;20044;-52
2021/03/13 02:27:44;;;;;;;4.93;1.08;;;;;;;;;;5027496;28;20048;-55
2021/03/13 02:30:10;;;;;;;6.82;1.10;;;;;;;;;;5028238;28;20127;-56
2021/03/13 02:32:38;;;;;;;7.22;1.20;;;;;;;;;;5027853;28;20049;-57
2021/03/13 02:35:10;;;;;;;9.13;1.55;;;;;;;;;;5027320;28;20051;-53
2021/03/13 02:37:39;;;;;;;13.93;1.50;;;;;;;;;;5025202;28;20508;-53
2021/03/13 02:40:06;;;;;;;9.50;1.20;;;;;;;;;;5032444;28;20552;-56
2021/03/13 02:42:36;;;;;;;10.88;1.20;;;;;;;;;;5028067;28;20418;-55
2021/03/13 02:45:02;;;;;;;6.07;1.08;;;;;;;;;;5030140;28;20044;-57
2021/03/13 02:47:29;;;;;;;4.05;0.90;;;;;;;;;;5031068;28;20041;-54
2021/03/13 02:49:56;;;;;;;10.70;1.30;;;;;;;;;;5029676;28;20033;-57
2021/03/13 02:52:22;;;;;;;11.05;1.10;;;;;;;;;;5010405;28;20169;-55
2021/03/13 02:54:49;;;;;;;5.70;0.98;;;;;;;;;;5009796;28;20663;-54
2021/03/13 02:57:21;;;;;;;7.97;1.30;;;;;;;;;;5008052;28;20038;-53
2021/03/13 02:59:48;;;;;;;6.07;0.95;;;;;;;;;;5009897;28;20571;-54
2021/03/13 03:02:18;;;;;;;6.13;1.67;;;;;;;;;;5007724;28;20100;-54
2021/03/13 03:04:44;;;;;;;9.60;1.40;;;;;;;;;;4990554;28;20096;-56
2021/03/13 03:07:23;;;;;;;7.95;1.30;;;;;;;;;;5009003;28;20122;-59
2021/03/13 03:10:08;;;;;;;5.85;0.90;;;;;;;;;;4982023;28;20573;-56
2021/03/13 03:12:34;;;;;;;6.90;0.90;;;;;;;;;;5009791;28;20034;-55
2021/03/13 03:15:00;;;;;;;5.10;0.90;;;;;;;;;;5010899;28;20042;-54
2021/03/13 03:17:27;;;;;;;7.57;1.10;;;;;;;;;;5012650;28;20038;-53
2021/03/13 03:19:54;;;;;;;4.85;0.90;;;;;;;;;;5000246;28;20042;-56
2021/03/13 03:22:20;;;;;;;6.53;0.93;;;;;;;;;;5012651;28;20095;-55
2021/03/13 03:24:47;;;;;;;4.45;0.70;;;;;;;;;;5012850;28;20052;-57
2021/03/13 03:27:12;;;;;;;7.03;1.00;;;;;;;;;;5014701;28;20033;-56
2021/03/13 03:29:38;;;;;;;11.27;0.90;;;;;;;;;;5015133;28;20030;-55
2021/03/13 03:32:04;;;;;;;3.92;0.80;;;;;;;;;;5014941;28;20187;-56
2021/03/13 03:34:33;;;;;;;6.30;1.00;;;;;;;;;;5014292;28;21009;-55
2021/03/13 03:36:59;;;;;;;11.05;1.08;;;;;;;;;;5014148;28;20033;-55
2021/03/13 03:39:32;;;;;;;9.30;1.05;;;;;;;;;;5015011;28;20494;-55
2021/03/13 03:41:59;;;;;;;5.50;1.00;;;;;;;;;;5012527;28;20056;-54
2021/03/13 03:44:26;;;;;;;7.28;1.10;;;;;;;;;;5014153;28;20145;-55
2021/03/13 03:46:57;;;;;;;11.20;1.10;;;;;;;;;;5013153;28;21008;-54
2021/03/13 03:49:24;;;;;;;15.85;1.35;;;;;;;;;;5012156;28;20050;-54
2021/03/13 03:51:50;;;;;;;16.02;1.48;;;;;;;;;;5010284;28;20181;-56
2021/03/13 03:54:18;;;;;;;16.05;1.25;;;;;;;;;;5018472;28;20515;-55
2021/03/13 03:56:44;;;;;;;10.18;1.40;;;;;;;;;;5016732;28;20033;-57
2021/03/13 03:59:13;;;;;;;14.48;2.10;;;;;;;;;;5016572;28;20619;-53
2021/03/13 04:01:49;;;;;;;9.70;1.50;;;;;;;;;;5016551;28;20829;-56
2021/03/13 04:04:17;;;;;;;8.32;1.30;;;;;;;;;;5017189;28;20481;-55
2021/03/13 04:06:44;;;;;;;10.15;1.90;;;;;;;;;;5014580;28;20033;-56
2021/03/13 04:09:11;;;;;;;15.02;3.13;;;;;;;;;;5011462;28;20390;-57
2021/03/13 04:11:38;;;;;;;8.50;1.30;;;;;;;;;;5014832;28;20061;-57
2021/03/13 04:14:04;;;;;;;10.70;1.00;;;;;;;;;;4992308;28;20045;-54
2021/03/13 04:16:30;;;;;;;6.25;1.35;;;;;;;;;;5017438;28;20041;-55
2021/03/13 04:18:57;;;;;;;8.60;1.02;;;;;;;;;;5014517;28;20057;-56
2021/03/13 04:21:23;;;;;;;6.20;0.90;;;;;;;;;;5016622;28;20136;-52
2021/03/13 04:23:49;;;;;;;4.57;1.00;;;;;;;;;;5017339;28;20054;-55
2021/03/13 04:26:20;;;;;;;4.93;0.95;;;;;;;;;;5016717;28;20042;-55
2021/03/13 04:28:46;;;;;;;5.45;1.00;;;;;;;;;;4997201;28;20175;-55
2021/03/13 04:31:12;;;;;;;4.35;0.90;;;;;;;;;;5016996;28;20094;-56
2021/03/13 04:33:39;;;;;;;5.80;1.38;;;;;;;;;;5015588;28;20165;-55
2021/03/13 04:36:05;;;;;;;5.05;1.10;;;;;;;;;;5016051;28;20033;-53
2021/03/13 04:38:32;;;;;;;3.97;1.27;;;;;;;;;;5019295;28;20091;-54
2021/03/13 04:41:01;;;;;;;4.85;1.05;;;;;;;;;;5018685;28;20049;-54
2021/03/13 04:43:27;;;;;;;6.68;1.30;;;;;;;;;;5015553;28;20410;-56
2021/03/13 04:45:57;;;;;;;5.05;1.20;;;;;;;;;;5002945;28;20033;-53
2021/03/13 04:48:23;;;;;;;4.47;0.90;;;;;;;;;;5014635;28;20171;-54
2021/03/13 04:50:49;;;;;;;7.60;1.20;;;;;;;;;;5014387;28;20176;-54
2021/03/13 04:53:15;;;;;;;4.43;1.00;;;;;;;;;;5016151;28;20060;-56
2021/03/13 04:55:41;;;;;;;9.55;1.40;;;;;;;;;;5015216;28;20045;-57
2021/03/13 04:58:08;;;;;;;4.57;1.23;;;;;;;;;;5017315;28;20471;-56
2021/03/13 05:00:33;;;;;;;5.82;1.80;;;;;;;;;;5016091;28;20037;-57
2021/03/13 05:02:59;;;;;;;6.30;1.30;;;;;;;;;;5016820;28;20054;-56
2021/03/13 05:05:25;;;;;;;12.95;1.48;;;;;;;;;;5016974;28;20300;-57
2021/03/13 05:07:51;;;;;;;10.32;1.30;;;;;;;;;;5017399;28;20041;-54
2021/03/13 05:10:17;;;;;;;8.32;1.50;;;;;;;;;;5021783;28;21982;-54
2021/03/13 05:12:44;;;;;;;27.80;2.10;;;;;;;;;;5018681;28;20056;-53
2021/03/13 05:15:10;;;;;;;24.13;2.38;;;;;;;;;;5016628;28;20037;-57
2021/03/13 05:17:36;;;;;;;30.52;2.47;;;;;;;;;;5015621;28;20654;-53
2021/03/13 05:20:03;;;;;;;18.52;1.80;;;;;;;;;;4994183;28;20049;-55
2021/03/13 05:22:29;;;;;;;25.80;2.20;;;;;;;;;;5016363;28;20048;-54
2021/03/13 05:24:55;;;;;;;9.35;1.60;;;;;;;;;;5017100;28;20095;-55
2021/03/13 05:27:21;;;;;;;12.93;1.17;;;;;;;;;;5015439;28;20049;-53
2021/03/13 05:29:47;;;;;;;19.60;1.92;;;;;;;;;;5018780;28;20612;-55
2021/03/13 05:32:13;;;;;;;10.50;1.65;;;;;;;;;;5015204;28;20049;-53
2021/03/13 05:34:39;;;;;;;15.38;1.63;;;;;;;;;;5015760;28;22219;-56
2021/03/13 05:37:05;;;;;;;8.65;1.38;;;;;;;;;;5016629;28;20041;-55
2021/03/13 05:39:31;;;;;;;14.57;1.95;;;;;;;;;;5016077;28;20121;-58
2021/03/13 05:41:58;;;;;;;7.60;1.40;;;;;;;;;;5009596;28;20131;-57
2021/03/13 05:44:24;;;;;;;10.45;1.30;;;;;;;;;;5015773;28;20041;-56
2021/03/13 05:46:50;;;;;;;10.77;1.77;;;;;;;;;;5016237;28;20037;-57
2021/03/13 05:49:17;;;;;;;10.55;1.55;;;;;;;;;;5014378;28;20046;-57
2021/03/13 05:51:44;;;;;;;6.75;1.63;;;;;;;;;;4999122;28;20069;-54
2021/03/13 05:54:12;;;;;;;8.57;1.35;;;;;;;;;;5013349;28;20056;-54
2021/03/13 05:56:38;;;;;;;8.00;1.63;;;;;;;;;;5012481;28;20559;-54
2021/03/13 05:59:05;;;;;;;5.72;1.10;;;;;;;;;;5015690;28;20037;-54
2021/03/13 06:01:31;;;;;;;6.57;1.23;;;;;;;;;;5014570;28;20273;-55
2021/03/13 06:03:57;;;;;;;4.88;1.88;;;;;;;;;;5015273;28;20867;-55
2021/03/13 06:06:24;;;;;;;5.05;1.20;;;;;;;;;;5015212;28;20033;-54
2021/03/13 06:08:50;;;;;;;7.40;1.38;;;;;;;;;;5015371;28;20329;-57
2021/03/13 06:11:17;;;;;;;7.97;1.33;;;;;;;;;;5017169;28;20124;-55
2021/03/13 06:13:43;;;;;;;7.10;1.38;;;;;;;;;;5016122;28;20037;-54
2021/03/13 06:16:09;;;;;;;5.35;1.48;;;;;;;;;;5014796;28;20042;-57
2021/03/13 06:18:50;;;;;;;17.38;1.58;;;;;;;;;;5016612;28;20034;-53
2021/03/13 06:21:31;;;;;;;9.80;2.65;;;;;;;;;;5015317;28;20049;-54
2021/03/13 06:23:58;;;;;;;9.32;2.85;;;;;;;;;;5013054;28;20052;-54
2021/03/13 06:26:24;;;;;;;11.80;3.80;;;;;;;;;;5012179;28;20037;-54
2021/03/13 06:28:54;;;;;;;12.25;3.10;;;;;;;;;;5016592;28;20126;-56
2021/03/13 06:31:24;;;;;;;10.95;2.75;;;;;;;;;;5013526;28;20539;-56
2021/03/13 06:33:50;;;;;;;9.35;2.50;;;;;;;;;;5015011;28;20037;-53
2021/03/13 06:36:25;;;;;;;10.55;2.20;;;;;;;;;;5017173;28;20206;-54
2021/03/13 06:38:52;;;;;;;8.27;1.75;;;;;;;;;;5017181;28;20045;-56
2021/03/13 06:41:24;;;;;;;8.57;1.45;;;;;;;;;;5014382;28;20033;-56
2021/03/13 06:43:56;;;;;;;5.85;1.77;;;;;;;;;;5013228;28;20410;-56
2021/03/13 06:46:28;;;;;;;9.02;1.77;;;;;;;;;;5014571;28;20763;-56
2021/03/13 06:48:55;;;;;;;7.00;1.95;;;;;;;;;;5014549;28;20037;-57
2021/03/13 06:51:39;;;;;;;11.30;2.38;;;;;;;;;;5016574;28;20808;-56
2021/03/13 06:54:12;;;;;;;10.93;4.03;;;;;;;;;;5018858;28;20049;-56
2021/03/13 06:56:42;;;;;;;13.50;3.85;;;;;;;;;;5016601;28;20725;-58
2021/03/13 06:59:35;;;;;;;18.38;4.18;;;;;;;;;;5020625;28;20118;-57
2021/03/13 07:02:05;;;;;;;13.90;3.90;;;;;;;;;;5018986;28;20191;-56
2021/03/13 07:04:31;;;;;;;8.70;2.30;;;;;;;;;;5019170;28;20137;-56
2021/03/13 07:06:57;;;;;;;10.35;2.22;;;;;;;;;;5019496;28;20566;-57
2021/03/13 07:09:42;;;;;;;10.73;2.10;;;;;;;;;;5020687;28;20064;-57
2021/03/13 07:12:28;;;;;;;12.60;2.03;;;;;;;;;;5019402;28;20044;-57
2021/03/13 07:14:54;;;;;;;18.60;1.88;;;;;;;;;;5006996;28;20037;-55
2021/03/13 07:17:21;;;;;;;10.85;1.80;;;;;;;;;;5018706;28;20666;-56
2021/03/13 07:19:47;;;;;;;10.43;1.85;;;;;;;;;;5019475;28;20050;-56
2021/03/13 07:22:13;;;;;;;9.40;1.75;;;;;;;;;;5022778;28;20045;-56
2021/03/13 07:24:43;;;;;;;8.15;1.58;;;;;;;;;;5019109;28;20136;-56
2021/03/13 07:27:10;;;;;;;11.27;1.98;;;;;;;;;;5022336;28;20107;-56
2021/03/13 07:29:40;;;;;;;8.60;1.90;;;;;;;;;;5019839;28;20067;-55
2021/03/13 07:32:08;;;;;;;8.63;2.15;;;;;;;;;;5020401;28;20135;-52
2021/03/13 07:34:37;;;;;;;8.45;1.73;;;;;;;;;;5017548;28;20042;-56
2021/03/13 07:37:03;;;;;;;7.72;2.13;;;;;;;;;;5004180;28;20048;-64
2021/03/13 07:39:33;;;;;;;6.57;1.77;;;;;;;;;;5002160;28;20432;-56
2021/03/13 07:42:10;;;;;;;10.05;2.03;;;;;;;;;;4997203;28;20072;-58
2021/03/13 07:44:38;;;;;;;13.07;2.05;;;;;;;;;;5021842;28;20409;-57
2021/03/13 07:47:04;;;;;;;7.55;1.90;;;;;;;;;;5017891;28;20049;-55
2021/03/13 07:49:33;;;;;;;10.45;1.90;;;;;;;;;;5001893;28;20034;-57
2021/03/13 07:51:59;;;;;;;12.98;2.40;;;;;;;;;;5002656;28;20108;-56
2021/03/13 07:54:26;;;;;;;11.75;2.40;;;;;;;;;;5011514;28;20037;-52
2021/03/13 07:56:52;;;;;;;22.50;2.50;;;;;;;;;;5016437;28;20065;-57
2021/03/13 07:59:36;;;;;;;11.23;1.77;;;;;;;;;;5016451;28;20863;-55
2021/03/13 08:02:02;;;;;;;9.80;1.67;;;;;;;;;;5016359;28;20053;-56
2021/03/13 08:04:43;;;;;;;6.55;2.03;;;;;;;;;;5014397;28;20517;-54
2021/03/13 08:07:09;;;;;;;11.25;1.90;;;;;;;;;;5016391;28;20041;-56
2021/03/13 08:09:43;;;;;;;7.07;2.00;;;;;;;;;;5017479;28;20040;-57
2021/03/13 08:12:09;;;;;;;7.97;2.10;;;;;;;;;;5017515;28;20037;-57
2021/03/13 08:14:38;;;;;;;8.13;1.77;;;;;;;;;;5014821;28;20041;-56
2021/03/13 08:17:08;;;;;;;7.93;1.90;;;;;;;;;;5017114;28;20084;-56
2021/03/13 08:19:44;;;;;;;6.75;1.77;;;;;;;;;;5016062;28;20041;-55
2021/03/13 08:22:11;;;;;;;9.95;1.77;;;;;;;;;;5016800;28;20083;-57
2021/03/13 08:24:45;;;;;;;16.67;2.03;;;;;;;;;;5015129;28;20132;-55
2021/03/13 08:27:11;;;;;;;4.38;1.45;;;;;;;;;;5017600;28;20459;-51
2021/03/13 08:30:03;;;;;;;7.18;1.80;;;;;;;;;;5014866;28;20053;-54
2021/03/13 08:32:47;;;;;;;10.13;2.05;;;;;;;;;;5013670;28;20045;-56
2021/03/13 08:35:13;;;;;;;9.80;2.15;;;;;;;;;;5015174;28;20048;-56
2021/03/13 08:37:48;;;;;;;5.97;2.30;;;;;;;;;;5017064;28;20041;-55
2021/03/13 08:40:21;;;;;;;7.00;2.53;;;;;;;;;;4994249;28;20061;-55
2021/03/13 08:42:46;;;;;;;5.95;1.90;;;;;;;;;;5017287;28;20053;-53
2021/03/13 08:45:13;;;;;;;7.03;1.70;;;;;;;;;;5016903;28;20045;-51
2021/03/13 08:47:43;;;;;;;6.03;1.65;;;;;;;;;;5015035;28;20044;-54
2021/03/13 08:50:10;;;;;;;8.13;1.60;;;;;;;;;;5018085;28;20061;-53
2021/03/13 08:52:36;;;;;;;5.35;1.83;;;;;;;;;;5021027;28;20049;-56
2021/03/13 08:55:02;;;;;;;5.18;1.50;;;;;;;;;;5020433;28;20041;-52
2021/03/13 08:57:28;;;;;;;6.88;1.75;;;;;;;;;;5020844;28;20037;-55
2021/03/13 08:59:54;;;;;;;10.93;1.58;;;;;;;;;;5019868;28;20044;-54
2021/03/13 09:02:21;;;;;;;5.53;1.80;;;;;;;;;;5005567;28;20210;-53
2021/03/13 09:04:52;;;;;;;8.13;1.90;;;;;;;;;;5017737;28;20424;-55
2021/03/13 09:07:18;;;;;;;8.55;1.48;;;;;;;;;;5019155;28;20414;-52
2021/03/13 09:09:44;;;;;;;10.90;1.88;;;;;;;;;;5019178;28;20041;-54
2021/03/13 09:12:14;;;;;;;5.53;1.48;;;;;;;;;;5019047;28;20522;-54
2021/03/13 09:14:42;;;;;;;6.65;1.63;;;;;;;;;;5018656;28;20193;-51
2021/03/13 09:17:08;;;;;;;5.95;1.42;;;;;;;;;;5019114;28;20419;-56
2021/03/13 09:19:33;;;;;;;9.85;1.80;;;;;;;;;;5019709;28;20029;-54
2021/03/13 09:21:59;;;;;;;6.07;1.48;;;;;;;;;;5018585;28;20041;-56
2021/03/13 09:24:29;;;;;;;5.32;1.60;;;;;;;;;;5016759;28;20072;-52
2021/03/13 09:26:56;;;;;;;6.97;1.80;;;;;;;;;;5020983;28;20052;-54
2021/03/13 09:29:26;;;;;;;5.38;1.55;;;;;;;;;;5003781;28;20044;-53
2021/03/13 09:31:59;;;;;;;4.72;1.60;;;;;;;;;;5001888;28;20038;-56
2021/03/13 09:34:25;;;;;;;24.98;2.10;;;;;;;;;;5017108;28;20044;-54
2021/03/13 09:36:51;;;;;;;7.63;1.45;;;;;;;;;;5018065;28;20107;-57
2021/03/13 09:39:24;;;;;;;4.82;1.88;;;;;;;;;;5019253;28;20025;-56
2021/03/13 09:42:04;;;;;;;5.43;1.70;;;;;;;;;;5017277;28;20066;-57
2021/03/13 09:44:30;;;;;;;6.97;1.48;;;;;;;;;;5015221;28;20033;-55
2021/03/13 09:46:56;;;;;;;4.47;1.48;;;;;;;;;;5017353;28;20527;-54
2021/03/13 09:49:22;;;;;;;5.45;1.60;;;;;;;;;;5015525;28;20041;-56
2021/03/13 09:51:49;;;;;;;6.00;1.60;;;;;;;;;;5015132;28;20670;-56
2021/03/13 09:54:18;;;;;;;14.43;1.63;;;;;;;;;;5015122;28;20124;-55
2021/03/13 09:56:44;;;;;;;9.00;1.70;;;;;;;;;;5016301;28;20045;-56
2021/03/13 09:59:10;;;;;;;9.02;1.45;;;;;;;;;;5015985;28;20473;-56
2021/03/13 10:01:37;;;;;;;6.68;1.65;;;;;;;;;;5014000;28;20506;-54
2021/03/13 10:04:03;;;;;;;6.13;1.40;;;;;;;;;;5016644;28;20052;-55
2021/03/13 10:06:29;;;;;;;4.15;1.30;;;;;;;;;;5014939;28;20091;-56
2021/03/13 10:08:58;;;;;;;4.22;1.23;;;;;;;;;;5016185;28;20486;-56
2021/03/13 10:11:37;;;;;;;6.00;1.88;;;;;;;;;;5017431;28;20044;-57
2021/03/13 10:14:03;;;;;;;8.40;1.58;;;;;;;;;;5015094;28;20041;-55
2021/03/13 10:16:32;;;;;;;5.97;1.38;;;;;;;;;;5015650;28;20528;-52
2021/03/13 10:18:58;;;;;;;4.38;1.20;;;;;;;;;;5015407;28;20094;-55
2021/03/13 10:21:24;;;;;;;3.88;1.40;;;;;;;;;;5013759;28;20037;-55
2021/03/13 10:23:57;;;;;;;6.38;1.60;;;;;;;;;;5015832;28;20060;-55
2021/03/13 10:26:23;;;;;;;5.77;1.73;;;;;;;;;;5009712;28;20038;-54
2021/03/13 10:28:49;;;;;;;6.22;1.75;;;;;;;;;;5016454;28;20049;-56
2021/03/13 10:31:20;;;;;;;7.43;1.40;;;;;;;;;;5014700;28;20045;-56
2021/03/13 10:33:52;;;;;;;7.32;2.47;;;;;;;;;;4999018;28;22444;-56
2021/03/13 10:36:19;;;;;;;10.17;1.93;;;;;;;;;;5017369;28;20083;-55
2021/03/13 10:38:47;;;;;;;6.90;1.60;;;;;;;;;;5016544;28;20283;-53
2021/03/13 10:41:15;;;;;;;9.27;1.77;;;;;;;;;;5015458;28;20045;-55
2021/03/13 10:43:43;;;;;;;9.63;1.50;;;;;;;;;;5014818;28;20704;-57
2021/03/13 10:46:20;;;;;;;6.35;1.45;;;;;;;;;;5013636;28;20419;-53
2021/03/13 10:48:53;;;;;;;8.45;1.60;;;;;;;;;;5017672;28;20466;-51
2021/03/13 10:51:28;;;;;;;3.63;1.25;;;;;;;;;;5005271;28;20069;-56
2021/03/13 10:53:55;;;;;;;6.50;1.48;;;;;;;;;;5004336;28;20395;-54
2021/03/13 10:56:21;;;;;;;6.13;1.40;;;;;;;;;;5010666;28;20045;-56
2021/03/13 10:58:51;;;;;;;4.68;1.38;;;;;;;;;;5014541;28;20044;-55
2021/03/13 11:01:17;;;;;;;12.55;1.83;;;;;;;;;;5012587;28;20041;-55
2021/03/13 11:03:44;;;;;;;8.85;1.50;;;;;;;;;;5012668;28;20049;-53
2021/03/13 11:06:13;;;;;;;4.90;1.50;;;;;;;;;;5011761;28;20053;-56
2021/03/13 11:08:39;;;;;;;4.88;1.48;;;;;;;;;;5011479;28;20494;-54
2021/03/13 11:11:05;;;;;;;7.03;1.63;;;;;;;;;;5012818;28;20119;-54
2021/03/13 11:13:32;;;;;;;5.72;1.33;;;;;;;;;;5011168;28;20037;-56
2021/03/13 11:15:58;;;;;;;7.18;1.63;;;;;;;;;;5011459;28;20053;-56
2021/03/13 11:18:24;;;;;;;4.13;1.30;;;;;;;;;;5012837;28;20033;-57
2021/03/13 11:20:50;;;;;;;7.82;1.65;;;;;;;;;;5010853;28;20390;-54
2021/03/13 11:23:16;;;;;;;6.03;1.92;;;;;;;;;;5009638;28;20741;-53
2021/03/13 11:25:43;;;;;;;8.02;1.70;;;;;;;;;;4989519;28;20041;-54
2021/03/13 11:28:09;;;;;;;5.22;1.50;;;;;;;;;;5011582;28;20497;-56
2021/03/13 11:30:36;;;;;;;6.88;1.60;;;;;;;;;;4992997;28;20102;-55
2021/03/13 11:33:02;;;;;;;3.78;1.45;;;;;;;;;;5012164;28;20524;-53
2021/03/13 11:35:28;;;;;;;4.45;1.20;;;;;;;;;;4993190;28;20041;-54
2021/03/13 11:37:55;;;;;;;4.93;1.50;;;;;;;;;;4990101;28;20120;-56
2021/03/13 11:40:22;;;;;;;4.63;1.40;;;;;;;;;;5014422;28;20133;-56
2021/03/13 11:42:51;;;;;;;6.82;1.95;;;;;;;;;;5016799;28;20097;-55
2021/03/13 11:45:18;;;;;;;10.30;1.67;;;;;;;;;;5014797;28;20480;-56
2021/03/13 11:47:44;;;;;;;4.70;1.35;;;;;;;;;;5016951;28;20102;-55
2021/03/13 11:50:11;;;;;;;5.32;1.77;;;;;;;;;;5017106;28;20502;-55
2021/03/13 11:52:38;;;;;;;4.00;2.00;;;;;;;;;;5034919;28;20032;-55
2021/03/13 11:55:07;;;;;;;9.10;1.88;;;;;;;;;;5035144;28;20067;-56
2021/03/13 11:57:34;;;;;;;4.53;1.73;;;;;;;;;;5034923;28;20075;-54
2021/03/13 12:00:00;;;;;;;4.95;1.60;;;;;;;;;;5035093;28;21961;-56
2021/03/13 12:02:25;;;;;;;8.70;1.63;;;;;;;;;;5034180;28;20048;-54
2021/03/13 12:04:51;;;;;;;6.15;1.67;;;;;;;;;;5035959;28;20048;-54
2021/03/13 12:07:17;;;;;;;7.65;1.63;;;;;;;;;;5034718;28;20099;-56
2021/03/13 12:09:43;;;;;;;4.30;1.70;;;;;;;;;;5032678;28;20056;-51
2021/03/13 12:12:10;;;;;;;8.50;2.67;;;;;;;;;;5034297;28;20045;-55
2021/03/13 12:14:37;;;;;;;11.30;1.77;;;;;;;;;;5033409;28;20630;-54
2021/03/13 12:17:03;;;;;;;7.90;1.92;;;;;;;;;;5035732;28;20131;-52
2021/03/13 12:19:29;;;;;;;7.22;1.80;;;;;;;;;;5035014;28;20508;-53
2021/03/13 12:21:55;;;;;;;9.38;1.58;;;;;;;;;;5033545;28;20059;-55
2021/03/13 12:24:21;;;;;;;5.70;1.60;;;;;;;;;;5032188;28;20087;-55
2021/03/13 12:26:47;;;;;;;5.95;1.63;;;;;;;;;;5035370;28;20147;-53
2021/03/13 12:29:13;;;;;;;5.80;1.60;;;;;;;;;;5035231;28;20048;-54
2021/03/13 12:31:39;;;;;;;8.90;1.90;;;;;;;;;;5034402;28;20041;-52
2021/03/13 12:34:05;;;;;;;4.28;1.38;;;;;;;;;;5034002;28;20037;-55
2021/03/13 12:36:32;;;;;;;4.53;1.38;;;;;;;;;;5033658;28;20167;-56
2021/03/13 12:38:58;;;;;;;6.00;1.48;;;;;;;;;;5036336;28;20045;-56
2021/03/13 12:41:24;;;;;;;8.30;1.55;;;;;;;;;;5035001;28;20048;-55
2021/03/13 12:43:50;;;;;;;5.25;1.27;;;;;;;;;;5034182;28;20048;-56
2021/03/13 12:46:16;;;;;;;8.82;1.65;;;;;;;;;;5035491;28;20037;-57
2021/03/13 12:48:49;;;;;;;5.05;1.50;;;;;;;;;;5034540;28;20342;-55
2021/03/13 12:51:15;;;;;;;6.53;1.60;;;;;;;;;;5033999;28;20106;-54
2021/03/13 12:53:42;;;;;;;6.20;1.80;;;;;;;;;;5034063;28;20044;-56
2021/03/13 12:56:08;;;;;;;7.10;1.75;;;;;;;;;;5033592;28;20036;-56
2021/03/13 12:58:34;;;;;;;7.72;1.85;;;;;;;;;;5033334;28;20055;-57
2021/03/13 13:00:59;;;;;;;6.18;1.80;;;;;;;;;;5034747;28;20051;-57
2021/03/13 13:03:25;;;;;;;6.35;1.58;;;;;;;;;;5032410;28;20366;-56
2021/03/13 13:05:51;;;;;;;6.78;1.55;;;;;;;;;;5034090;28;20426;-56
2021/03/13 13:08:17;;;;;;;9.38;1.80;;;;;;;;;;5033940;28;20041;-55
2021/03/13 13:10:43;;;;;;;5.90;1.70;;;;;;;;;;5033639;28;20405;-53
2021/03/13 13:13:12;;;;;;;8.70;1.80;;;;;;;;;;5034938;28;20068;-56
2021/03/13 13:15:38;;;;;;;6.22;1.75;;;;;;;;;;5033944;28;21398;-56
2021/03/13 13:18:03;;;;;;;5.97;1.60;;;;;;;;;;5034789;28;20118;-56
2021/03/13 13:20:29;;;;;;;10.63;1.67;;;;;;;;;;5033149;28;20037;-54
2021/03/13 13:22:55;;;;;;;8.05;2.05;;;;;;;;;;5033296;28;20560;-54
2021/03/13 13:25:22;;;;;;;12.07;2.00;;;;;;;;;;5033465;28;20520;-57
2021/03/13 13:27:48;;;;;;;7.07;1.75;;;;;;;;;;5034144;28;20043;-55
2021/03/13 13:30:15;;;;;;;9.15;2.15;;;;;;;;;;5033881;28;20036;-55
2021/03/13 13:32:42;;;;;;;8.85;1.83;;;;;;;;;;5034492;28;20626;-57
2021/03/13 13:35:08;;;;;;;6.63;1.60;;;;;;;;;;5033751;28;20094;-57
2021/03/13 13:37:34;;;;;;;11.82;1.58;;;;;;;;;;5034604;28;20762;-57
2021/03/13 13:40:02;;;;;;;13.02;1.80;;;;;;;;;;5035685;28;20428;-57
2021/03/13 13:42:28;;;;;;;13.57;2.05;;;;;;;;;;5033964;28;20474;-53
2021/03/13 13:44:54;;;;;;;17.13;2.35;;;;;;;;;;5034282;28;20037;-56
2021/03/13 13:47:19;;;;;;;18.55;2.38;;;;;;;;;;5033851;28;22075;-55
2021/03/13 13:49:45;;;;;;;11.32;1.90;;;;;;;;;;5032275;28;20421;-55
2021/03/13 13:52:11;;;;;;;11.00;2.05;;;;;;;;;;5025754;28;20057;-55
2021/03/13 13:54:37;;;;;;;12.73;1.98;;;;;;;;;;5023708;28;20041;-54
2021/03/13 13:57:03;;;;;;;9.57;2.08;;;;;;;;;;5016475;28;20158;-54
2021/03/13 13:59:30;;;;;;;8.48;1.88;;;;;;;;;;5028083;28;21061;-55
2021/03/13 14:01:56;;;;;;;10.05;2.22;;;;;;;;;;5025751;28;20041;-55
2021/03/13 14:04:22;;;;;;;10.70;2.10;;;;;;;;;;5023378;28;20421;-52
2021/03/13 14:06:48;;;;;;;11.98;2.17;;;;;;;;;;5033392;28;20045;-56
2021/03/13 14:09:14;;;;;;;12.45;1.92;;;;;;;;;;4997039;28;20033;-57
2021/03/13 14:11:42;;;;;;;12.20;2.00;;;;;;;;;;5032947;28;20044;-55
2021/03/13 14:14:08;;;;;;;11.35;2.45;;;;;;;;;;5028186;28;20038;-56
2021/03/13 14:16:34;;;;;;;9.52;2.10;;;;;;;;;;5031369;28;20087;-57
2021/03/13 14:19:00;;;;;;;17.08;2.40;;;;;;;;;;5012169;28;20151;-56
2021/03/13 14:21:26;;;;;;;12.93;2.47;;;;;;;;;;5034267;28;20879;-53
2021/03/13 14:23:52;;;;;;;9.48;2.30;;;;;;;;;;5033463;28;20053;-54
2021/03/13 14:26:18;;;;;;;11.10;2.17;;;;;;;;;;5035040;28;20037;-57
2021/03/13 14:28:44;;;;;;;10.35;2.03;;;;;;;;;;5017959;28;20052;-56
2021/03/13 14:31:10;;;;;;;6.45;1.80;;;;;;;;;;5035667;28;20033;-54
2021/03/13 14:33:38;;;;;;;10.93;2.13;;;;;;;;;;5034556;28;20063;-54
2021/03/13 14:36:04;;;;;;;10.70;1.83;;;;;;;;;;5035187;28;20037;-53
2021/03/13 14:38:30;;;;;;;8.20;2.13;;;;;;;;;;5033679;28;20046;-53
2021/03/13 14:40:56;;;;;;;6.45;1.48;;;;;;;;;;5001999;28;20042;-56